Terminal Aerodrome Forecast
Issued by NWS

Home | Current Version | Previous Version | Graphics & Text | Print | Product List | Glossary Off
Versions: 1 2 3 4 5 6 7 8 9 10 11 12 13 14 15 16 17 18 19 20

233
FTUS43 KABR 260922 AAB
TAFATY
TAF AMD
KATY 260922Z 2609/2706 35013KT 3SM -FZDZ BKN006 OVC010
     FM261200 35017G24KT 2SM -FZRASN BKN006 OVC010
     FM261500 35016KT 3SM -SN BR OVC008
     FM261900 35011KT P6SM OVC007=

USA.gov is the U.S. government's official web portal to all federal, state and local government web resources and services.